Detall de PIREP

Printer-friendly versionPDF version

[2014/03/07 21:43:00]
Flight IATA:CT2311
Pilot Number:044
Company ICAO:CAT
Aircraft Type:F100/A
PAX:103
Aircraft Registration:PFJ
Departing Airport: LIMC
Destination Airport: LIEA
Alternate Airport:LIEO
Online: VATSIM
Route:VOG UM858 MINKA
Flight Level:F310
No Slew and time accel
No pause
Crash detect
Detect pilot in Cockpit between each 30 and 45 minutes
21:43 Zero fuel Weight: 81826 Lbs, Fuel Weight: 8928 Lbs
21:43 VATSIM:LIMC 072120Z VRB02KT CAVOK 04/01 Q1023 NOSIG
21:43 VATSIM:LIEA 072120Z 01003KT 320V040 7000 1000W MIFG NSC 08/07 Q1023
21:43 VOICE CATALONIAN
21:44 Parking Brakes off
21:47 Take-off
21:47 Take off Weight: 90478 Lbs
21:47 Wind: 329º @ 000 Knots Heading: 169º
21:47 POS N45º 37´ 30´´ E008º 43´ 28´´
21:47 Gear Up: 181 Knots
21:47 Flaps:1 at 181 Knots
21:47 Flaps:0 at 195 Knots
22:02 Wind:009º@016 Knots Heading: 182º Ground Speed: 406 Knots Altitude 27864 ft
22:03 TOC
22:03 Fuel Weight: 6638 Lb
22:17 Wind:349º@034 Knots Heading: 185º Ground Speed: 479 Knots Altitude 31200 ft
22:24 TOD
22:24 Fuel Weight: 4925 Lb
22:32 Wind:071º@005 Knots Heading: 253º Ground Speed: 344 Knots Altitude 14783 ft
22:39 Flaps:1 at 183 Knots
22:40 Flaps:2 at 172 Knots
22:43 Flaps:3 at 154 Knots
22:43 Gear Down: 146 Knots
22:44 Flaps:4 at 136 Knots
22:46 TouchDown:Rate -146 ft/min Speed: 113 Knots
22:46 VATSIM:LIEA 072220Z 07003KT 7000 NSC 07/06 Q1023
22:46 Land
22:46 Wind:070º@003 Knots
22:46 Heading: 202º
22:46 Flight Duration: 00:59
22:46 Landing Weight: 85389 Lbs
22:46 POS N40º 38´ 03´´ E008º 17´ 31´´
22:53 Parking brakes on
22:53 Block to Block Duration: 01:09
22:53 Final Fuel: 3287 Lbls
22:53 Spent Fuel: 5641 Lbls
22:53 Flight Length: 349 NM
22:53 TOD Land Length: 99 NM

Exportar CSV

Powered by Drupal - Modified by Danger4k